createdAt,value
2018-06-01T00:00:15.471Z,22.20
2018-06-01T00:02:44.402Z,22.20
2018-06-01T00:05:13.338Z,22.30
2018-06-01T00:07:43.426Z,22.30
2018-06-01T00:10:12.376Z,22.20
2018-06-01T00:12:42.444Z,22.10
2018-06-01T00:15:11.761Z,22.10
2018-06-01T00:17:42.556Z,22.10
2018-06-01T00:20:12.228Z,22.10
2018-06-01T00:22:42.322Z,22.10
2018-06-01T00:25:12.795Z,22.00
2018-06-01T00:27:42.481Z,22.00
2018-06-01T00:30:11.906Z,22.10
2018-06-01T00:32:42.348Z,22.10
2018-06-01T00:35:11.260Z,22.00
2018-06-01T00:40:11.427Z,21.80
2018-06-01T00:45:10.429Z,21.70
2018-06-01T00:47:40.124Z,21.60
2018-06-01T00:50:10.193Z,21.60
2018-06-01T00:52:39.906Z,21.60
2018-06-01T00:55:20.786Z,21.60
2018-06-01T01:00:19.841Z,21.40
2018-06-01T01:05:20.780Z,21.40
2018-06-01T01:10:20.612Z,21.30
2018-06-01T01:12:49.998Z,21.40
2018-06-01T01:15:21.311Z,21.40
2018-06-01T01:20:21.457Z,21.20
2018-06-01T01:25:20.478Z,21.10
2018-06-01T01:27:51.658Z,21.10
2018-06-01T01:30:20.936Z,21.10
2018-06-01T01:35:20.319Z,21.10
2018-06-01T01:37:50.388Z,21.10
2018-06-01T01:40:19.712Z,21.10
2018-06-01T01:45:20.231Z,21.00
2018-06-01T01:47:49.597Z,21.00
2018-06-01T01:50:18.515Z,21.00
2018-06-01T01:52:48.226Z,21.10
2018-06-01T01:55:18.425Z,20.90
2018-06-01T01:57:47.767Z,20.90
2018-06-01T02:02:48.294Z,20.80
2018-06-01T02:05:17.978Z,20.80
2018-06-01T02:07:47.722Z,20.80
2018-06-01T02:15:16.868Z,20.70
2018-06-01T02:17:46.611Z,20.80
2018-06-01T02:20:15.558Z,20.80
2018-06-01T02:22:45.634Z,20.70
2018-06-01T02:25:14.544Z,20.70
2018-06-01T02:27:44.256Z,20.80
2018-06-01T02:32:43.660Z,20.60
2018-06-01T02:35:13.368Z,20.60
2018-06-01T02:37:42.688Z,20.60
2018-06-01T02:40:11.680Z,20.70
2018-06-01T02:42:42.314Z,20.60
2018-06-01T02:47:41.320Z,20.50
2018-06-01T02:50:11.421Z,20.40
2018-06-01T02:55:10.456Z,20.50
2018-06-01T02:57:40.151Z,20.40
2018-06-01T03:00:10.225Z,20.50
2018-06-01T03:05:09.222Z,20.50
2018-06-01T03:07:38.138Z,20.40
2018-06-01T03:12:37.141Z,20.10
2018-06-01T03:15:06.497Z,20.10
2018-06-01T03:17:35.425Z,20.20
2018-06-01T03:20:05.508Z,20.30
2018-06-01T03:25:04.499Z,20.30
2018-06-01T03:30:05.535Z,20.30
2018-06-01T03:32:35.222Z,20.30
2018-06-01T03:35:04.229Z,20.40
2018-06-01T03:37:33.526Z,20.50
2018-06-01T03:42:32.522Z,20.60
2018-06-01T03:45:01.449Z,20.70
2018-06-01T03:47:30.366Z,20.70
2018-06-01T03:49:59.310Z,20.80
2018-06-01T03:52:29.733Z,20.60
2018-06-01T03:54:59.426Z,20.60
2018-06-01T03:57:28.736Z,20.70
2018-06-01T03:59:58.810Z,20.80
2018-06-01T04:02:29.753Z,21.00
2018-06-01T04:04:59.441Z,21.10
2018-06-01T04:07:28.371Z,21.20
2018-06-01T04:12:27.354Z,21.30
2018-06-01T04:14:57.065Z,21.20
2018-06-01T04:17:25.990Z,21.30
2018-06-01T04:19:55.720Z,21.40
2018-06-01T04:22:24.655Z,21.50
2018-06-01T04:27:24.785Z,21.60
2018-06-01T04:29:54.483Z,21.70
2018-06-01T04:32:23.436Z,21.60
2018-06-01T04:34:53.141Z,21.70
2018-06-01T04:37:22.469Z,21.70
2018-06-01T04:39:51.811Z,21.70
2018-06-01T04:42:20.731Z,21.80
2018-06-01T04:44:50.447Z,21.90
2018-06-01T04:47:22.796Z,21.90
2018-06-01T04:49:51.805Z,22.10
2018-06-01T04:52:21.501Z,22.30
2018-06-01T04:54:51.219Z,22.30
2018-06-01T04:57:20.595Z,22.30
2018-06-01T04:59:49.527Z,22.30
2018-06-01T05:04:48.547Z,22.30
2018-06-01T05:07:18.629Z,22.40
2018-06-01T05:09:47.559Z,22.50
2018-06-01T05:14:47.311Z,22.70
2018-06-01T05:17:16.656Z,22.70
2018-06-01T05:22:17.529Z,22.80
2018-06-01T05:24:46.815Z,23.00
2018-06-01T05:27:15.765Z,23.00
2018-06-01T05:32:15.531Z,23.10
2018-06-01T05:34:44.856Z,23.10
2018-06-01T05:37:14.367Z,23.20
2018-06-01T05:39:44.409Z,23.30
2018-06-01T05:42:13.359Z,23.30
2018-06-01T05:44:43.641Z,23.40
2018-06-01T05:47:12.574Z,23.50
2018-06-01T05:49:41.497Z,23.60
2018-06-01T05:52:10.435Z,23.60
2018-06-01T05:54:39.354Z,23.60
2018-06-01T05:57:08.291Z,23.70
2018-06-01T06:02:07.998Z,23.80
2018-06-01T06:07:07.684Z,24.10
2018-06-01T06:09:36.644Z,24.20
2018-06-01T06:12:05.619Z,24.10
2018-06-01T06:17:05.509Z,24.10
2018-06-01T06:22:04.490Z,24.40
2018-06-01T06:24:34.954Z,24.50
2018-06-01T06:27:04.656Z,24.70
2018-06-01T06:32:03.817Z,24.80
2018-06-01T06:37:04.641Z,25.10
2018-06-01T06:39:42.344Z,25.00
2018-06-01T06:42:12.141Z,25.10
2018-06-01T06:44:42.233Z,25.20
2018-06-01T06:47:11.986Z,25.40
2018-06-01T06:49:42.416Z,25.50
2018-06-01T06:52:12.157Z,25.50
2018-06-01T06:54:41.858Z,25.50
2018-06-01T06:57:11.556Z,25.50
2018-06-01T06:59:42.065Z,25.50
2018-06-01T07:02:11.047Z,26.50
2018-06-01T07:04:40.784Z,25.60
2018-06-01T07:07:11.310Z,25.70
2018-06-01T07:12:10.429Z,25.80
2018-06-01T07:14:40.505Z,25.90
2018-06-01T07:19:40.371Z,26.10
2018-06-01T07:24:40.712Z,25.80
2018-06-01T07:27:09.860Z,25.90
2018-06-01T07:29:39.584Z,26.00
2018-06-01T07:32:08.908Z,26.00
2018-06-01T07:34:37.886Z,26.20
2018-06-01T07:37:07.578Z,26.30
2018-06-01T07:39:38.054Z,26.40
2018-06-01T07:42:07.752Z,26.40
2018-06-01T07:44:37.824Z,26.40
2018-06-01T07:47:07.170Z,26.50
2018-06-01T07:49:36.528Z,26.50
2018-06-01T07:52:05.447Z,26.50
2018-06-01T07:54:35.181Z,26.60
2018-06-01T08:02:04.206Z,27.10
2018-06-01T08:04:34.024Z,27.00
2018-06-01T08:12:03.884Z,27.30
2018-06-01T08:14:32.826Z,27.40
2018-06-01T08:17:03.283Z,27.60
2018-06-01T08:24:33.509Z,27.50
2018-06-01T08:27:03.238Z,27.50
2018-06-01T08:29:32.605Z,27.70
2018-06-01T08:32:01.568Z,27.80
2018-06-01T08:34:31.279Z,27.90
2018-06-01T08:37:01.342Z,27.90
2018-06-01T08:39:30.932Z,28.00
2018-06-01T08:41:59.834Z,28.10
2018-06-01T08:46:58.914Z,28.20
2018-06-01T08:49:29.330Z,28.40
2018-06-01T08:51:58.286Z,28.40
2018-06-01T08:54:29.094Z,28.40
2018-06-01T08:56:58.012Z,28.30
2018-06-01T09:01:57.711Z,28.20
2018-06-01T09:04:27.391Z,28.40
2018-06-01T09:06:56.736Z,28.10
2018-06-01T09:11:55.774Z,28.30
2018-06-01T09:19:26.392Z,28.80
2018-06-01T09:24:27.232Z,29.20
2018-06-01T09:26:56.561Z,29.30
2018-06-01T09:31:56.097Z,29.10
2018-06-01T09:41:56.837Z,29.30
2018-06-01T09:46:56.611Z,29.70
2018-06-01T09:49:26.656Z,29.90
2018-06-01T09:54:26.472Z,30.10
2018-06-01T09:56:55.404Z,30.00
2018-06-01T10:01:54.505Z,30.00
2018-06-01T10:04:24.599Z,30.10
2018-06-01T10:06:53.556Z,30.00
2018-06-01T10:11:54.380Z,30.10
2018-06-01T10:14:24.444Z,29.70
2018-06-01T10:16:53.381Z,29.80
2018-06-01T10:21:52.517Z,29.70
2018-06-01T10:26:51.537Z,30.50
2018-06-01T10:29:21.259Z,30.90
2018-06-01T10:31:50.964Z,31.10
2018-06-01T10:34:20.664Z,31.20
2018-06-01T10:36:50.383Z,31.30
2018-06-01T10:41:49.540Z,31.70
2018-06-01T10:46:48.547Z,31.80
2018-06-01T10:49:18.597Z,31.80
2018-06-01T10:51:51.201Z,31.90
2018-06-01T10:54:23.427Z,32.10
2018-06-01T10:56:53.103Z,32.10
2018-06-01T11:01:53.613Z,32.30
2018-06-01T11:06:52.622Z,32.50
2018-06-01T11:09:21.558Z,32.70
2018-06-01T11:11:50.488Z,32.80
2018-06-01T11:14:19.418Z,32.90
2018-06-01T11:16:49.464Z,33.20
2018-06-01T11:19:18.774Z,33.50
2018-06-01T11:24:17.864Z,34.30
2018-06-01T11:26:48.288Z,34.00
2018-06-01T11:29:18.372Z,34.10
2018-06-01T11:31:47.704Z,34.50
2018-06-01T11:34:16.613Z,34.50
2018-06-01T11:36:45.554Z,34.90
2018-06-01T11:41:44.535Z,34.90
2018-06-01T11:44:13.499Z,35.00
2018-06-01T11:46:43.572Z,34.50
2018-06-01T11:49:13.010Z,34.10
2018-06-01T11:51:42.321Z,33.40
2018-06-01T11:54:12.014Z,32.70
2018-06-01T11:56:42.440Z,32.10
2018-06-01T11:59:12.522Z,31.60
2018-06-01T12:01:41.462Z,31.20
2018-06-01T12:04:11.169Z,30.80
2018-06-01T12:06:41.244Z,30.50
2018-06-01T12:09:10.595Z,30.20
2018-06-01T12:11:39.521Z,30.00
2018-06-01T12:14:08.473Z,29.90
2018-06-01T12:16:37.399Z,29.60
2018-06-01T12:19:07.100Z,29.40
2018-06-01T12:21:36.438Z,29.30
2018-06-01T12:24:05.389Z,29.30
2018-06-01T12:26:34.322Z,29.20
2018-06-01T12:29:03.284Z,29.10
2018-06-01T12:31:32.226Z,29.10
2018-06-01T12:34:02.296Z,29.00
2018-06-01T12:36:31.615Z,29.10
2018-06-01T12:39:02.058Z,29.00
2018-06-01T12:41:31.770Z,28.90
2018-06-01T12:44:01.471Z,28.90
2018-06-01T12:46:31.536Z,28.80
2018-06-01T12:49:01.253Z,28.90
2018-06-01T12:51:30.163Z,28.90
2018-06-01T12:53:59.941Z,28.80
2018-06-01T12:56:28.834Z,28.80
2018-06-01T13:01:27.854Z,28.80
2018-06-01T13:06:26.880Z,27.70
2018-06-01T13:08:56.253Z,27.10
2018-06-01T13:11:25.893Z,26.50
2018-06-01T13:13:54.849Z,26.00
2018-06-01T13:18:54.643Z,25.80
2018-06-01T13:21:24.314Z,25.50
2018-06-01T13:23:53.260Z,25.40
2018-06-01T13:28:53.707Z,25.40
2018-06-01T13:31:23.793Z,25.10
2018-06-01T13:33:52.786Z,25.00
2018-06-01T13:36:22.474Z,24.80
2018-06-01T13:38:51.808Z,24.50
2018-06-01T13:41:21.500Z,24.10
2018-06-01T13:43:51.585Z,23.60
2018-06-01T13:48:51.321Z,22.30
2018-06-01T13:51:20.341Z,21.30
2018-06-01T13:53:49.632Z,20.60
2018-06-01T13:58:49.053Z,19.90
2018-06-01T14:01:17.960Z,20.00
2018-06-01T14:03:46.907Z,20.10
2018-06-01T14:08:46.621Z,20.40
2018-06-01T14:16:15.626Z,20.80
2018-06-01T14:23:50.351Z,20.50
2018-06-01T14:28:49.320Z,20.60
2018-06-01T14:31:19.745Z,20.50
2018-06-01T14:33:48.636Z,20.40
2018-06-01T14:41:19.209Z,20.50
2018-06-01T14:43:48.519Z,20.80
2018-06-01T14:51:19.171Z,20.60
2018-06-01T14:53:48.492Z,20.70
2018-06-01T14:58:47.517Z,20.90
2018-06-01T15:01:17.232Z,21.20
2018-06-01T15:03:46.196Z,21.30
2018-06-01T15:06:15.902Z,21.30
2018-06-01T15:08:46.437Z,21.30
2018-06-01T15:11:16.918Z,21.00
2018-06-01T15:13:46.232Z,21.00
2018-06-01T15:16:16.316Z,21.10
2018-06-01T15:18:46.015Z,21.20
2018-06-01T15:21:15.701Z,21.10
2018-06-01T15:23:46.222Z,21.10
2018-06-01T15:26:16.312Z,21.10
2018-06-01T15:28:46.766Z,21.10
2018-06-01T15:31:16.464Z,21.20
2018-06-01T15:33:46.519Z,21.20
2018-06-01T15:36:15.455Z,21.20
2018-06-01T15:38:44.384Z,21.30
2018-06-01T15:41:13.360Z,21.30
2018-06-01T15:43:42.271Z,21.50
2018-06-01T15:46:12.736Z,21.50
2018-06-01T15:48:41.646Z,21.50
2018-06-01T15:51:10.576Z,21.40
2018-06-01T15:53:39.507Z,21.40
2018-06-01T15:56:08.473Z,21.40
2018-06-01T15:58:37.851Z,21.50
2018-06-01T16:01:06.845Z,21.40
2018-06-01T16:08:36.690Z,21.40
2018-06-01T16:11:05.616Z,21.40
2018-06-01T16:13:34.954Z,21.50
2018-06-01T16:16:05.055Z,21.50
2018-06-01T16:18:35.144Z,21.60
2018-06-01T16:21:04.080Z,21.80
2018-06-01T16:23:33.014Z,21.80
2018-06-01T16:26:03.439Z,21.70
2018-06-01T16:28:32.424Z,21.50
2018-06-01T16:31:01.342Z,21.50
2018-06-01T16:33:31.071Z,21.50
2018-06-01T16:35:59.986Z,21.40
2018-06-01T16:38:30.438Z,21.30
2018-06-01T16:41:00.123Z,21.30
2018-06-01T16:43:29.466Z,21.30
2018-06-01T16:45:58.384Z,21.40
2018-06-01T16:50:57.386Z,21.40
2018-06-01T16:53:26.284Z,21.30
2018-06-01T16:55:55.217Z,21.20
2018-06-01T17:00:55.493Z,21.30
2018-06-01T17:03:24.432Z,21.40
2018-06-01T17:05:54.498Z,21.50
2018-06-01T17:08:23.422Z,21.50
2018-06-01T17:10:52.356Z,21.60
2018-06-01T17:13:22.426Z,21.70
2018-06-01T17:18:21.417Z,21.80
2018-06-01T17:20:50.339Z,21.70
2018-06-01T17:25:49.398Z,21.70
2018-06-01T17:28:18.355Z,21.70
2018-06-01T17:30:48.060Z,21.60
2018-06-01T17:33:18.504Z,21.60
2018-06-01T17:35:47.831Z,21.70
2018-06-01T17:38:16.786Z,21.80
2018-06-01T17:45:48.042Z,21.80
2018-06-01T17:48:16.963Z,21.90
2018-06-01T17:50:45.888Z,21.80
2018-06-01T17:53:15.626Z,21.80
2018-06-01T17:55:45.338Z,21.70
2018-06-01T17:58:14.257Z,21.80
2018-06-01T18:00:43.204Z,21.70
2018-06-01T18:03:12.530Z,21.70
2018-06-01T18:08:11.633Z,21.80
2018-06-01T18:10:41.350Z,21.70
2018-06-01T18:15:40.358Z,21.50
2018-06-01T18:18:09.292Z,21.40
2018-06-01T18:20:38.241Z,21.40
2018-06-01T18:23:08.354Z,21.40
2018-06-01T18:28:07.460Z,21.50
2018-06-01T18:30:36.780Z,21.50
2018-06-01T18:33:06.096Z,21.50
2018-06-01T18:35:35.021Z,21.50
2018-06-01T18:38:03.960Z,21.50
2018-06-01T18:40:33.663Z,21.50
2018-06-01T18:43:03.730Z,21.60
2018-06-01T18:48:04.356Z,21.40
2018-06-01T18:50:33.047Z,21.40
2018-06-01T18:53:14.876Z,21.30
2018-06-01T18:55:44.290Z,21.10
2018-06-01T18:58:19.246Z,21.10
2018-06-01T19:00:49.455Z,21.10
2018-06-01T19:03:20.319Z,21.10
2018-06-01T19:05:50.107Z,21.20
2018-06-01T19:08:19.794Z,21.10
2018-06-01T19:10:49.507Z,21.10
2018-06-01T19:15:48.528Z,21.20
2018-06-01T19:18:17.454Z,21.20
2018-06-01T19:20:46.404Z,21.20
2018-06-01T19:23:16.468Z,21.10
2018-06-01T19:25:45.420Z,21.20
2018-06-01T19:28:15.930Z,21.10
2018-06-01T19:30:45.637Z,21.10
2018-06-01T19:33:15.325Z,21.10
2018-06-01T19:35:45.405Z,21.10
2018-06-01T19:38:14.740Z,21.10
2018-06-01T19:43:13.751Z,21.10
2018-06-01T19:48:18.944Z,21.30
2018-06-01T19:55:48.763Z,21.40
2018-06-01T19:58:18.457Z,21.30
2018-06-01T20:00:48.548Z,21.20
2018-06-01T20:05:47.583Z,21.10
2018-06-01T20:08:18.036Z,21.10
2018-06-01T20:10:47.431Z,21.00
2018-06-01T20:13:16.407Z,20.90
2018-06-01T20:18:16.117Z,21.00
2018-06-01T20:20:45.464Z,21.00
2018-06-01T20:23:14.369Z,21.10
2018-06-01T20:25:43.297Z,21.00
2018-06-01T20:28:12.620Z,20.90
2018-06-01T20:33:13.133Z,20.80
2018-06-01T20:38:13.622Z,21.00
2018-06-01T20:43:13.401Z,20.80
2018-06-01T20:45:42.335Z,20.80
2018-06-01T20:50:42.169Z,20.80
2018-06-01T20:53:11.117Z,20.80
2018-06-01T20:55:40.044Z,20.80
2018-06-01T20:58:08.985Z,20.80
2018-06-01T21:00:39.424Z,20.80
2018-06-01T21:03:08.368Z,20.80
2018-06-01T21:05:37.297Z,20.80
2018-06-01T21:08:07.011Z,20.90
2018-06-01T21:10:35.942Z,20.90
2018-06-01T21:13:04.867Z,20.90
2018-06-01T21:15:33.917Z,20.80
2018-06-01T21:23:03.411Z,20.80
2018-06-01T21:28:03.555Z,20.70
2018-06-01T21:30:33.241Z,20.60
2018-06-01T21:33:02.936Z,20.40
2018-06-01T21:35:32.631Z,20.60
2018-06-01T21:38:02.328Z,20.60
2018-06-01T21:40:32.127Z,20.60
2018-06-01T21:43:01.814Z,20.60
2018-06-01T21:48:01.350Z,20.70
2018-06-01T21:50:30.667Z,20.70
2018-06-01T21:53:00.400Z,20.60
2018-06-01T21:55:30.466Z,20.70
2018-06-01T21:57:59.411Z,20.80
2018-06-01T22:02:58.423Z,20.70
2018-06-01T22:07:57.421Z,20.80
2018-06-01T22:10:27.103Z,20.60
2018-06-01T22:12:56.821Z,20.60
2018-06-01T22:15:25.734Z,20.70
2018-06-01T22:17:54.675Z,20.60
2018-06-01T22:22:54.063Z,20.50
2018-06-01T22:25:24.136Z,20.40
2018-06-01T22:27:53.482Z,20.30
2018-06-01T22:30:22.391Z,20.30
2018-06-01T22:32:51.736Z,20.30
2018-06-01T22:35:20.659Z,20.40
2018-06-01T22:37:49.608Z,20.40
2018-06-01T22:42:48.631Z,20.30
2018-06-01T22:45:18.933Z,20.30
2018-06-01T22:47:47.918Z,20.30
2018-06-01T22:52:47.302Z,20.30
2018-06-01T22:55:16.232Z,20.30
2018-06-01T22:57:45.569Z,20.30
2018-06-01T23:00:29.727Z,20.20
2018-06-01T23:02:59.770Z,20.10
2018-06-01T23:07:59.536Z,20.20
2018-06-01T23:10:28.458Z,20.20
2018-06-01T23:12:58.143Z,20.20
2018-06-01T23:15:27.068Z,20.20
2018-06-01T23:17:55.978Z,20.10
2018-06-01T23:20:25.693Z,20.10
2018-06-01T23:22:55.015Z,20.00
2018-06-01T23:25:23.951Z,20.10
2018-06-01T23:27:53.660Z,20.10
2018-06-01T23:32:53.780Z,20.00
2018-06-01T23:35:23.103Z,20.10
2018-06-01T23:40:23.245Z,20.10
2018-06-01T23:42:52.177Z,20.00
2018-06-01T23:45:21.509Z,20.00
2018-06-01T23:47:51.217Z,20.00
2018-06-01T23:50:20.262Z,19.80
2018-06-01T23:52:49.950Z,19.70
2018-06-01T23:55:18.883Z,20.40
2018-06-01T23:57:47.789Z,19.90
